Solicitamos su permiso para obtener datos estadísticos de su navegación en esta web, en cumplimiento del Real Decreto-ley 13/2012. Si continúa navegando consideramos que acepta el uso de cookies. OK | Más información

MAPA DE AEROPUERTO

INFORMACIÓN METAR y TAF

METAR FOR LEZL
ADDS - METARS form results

(2134 UTC 24 February 2018)
Data provider http://aviationweather.gov/adds/metars/
 
METAR text: LEZL 242130Z 19004KT 160V250 9999 SCT020 14/07 Q1009 NOSIG
Conditions at: LEZL (SEVILLA (CIV/MIL, ES) observed 2130 UTC 24 February 2018
Temperature: 14.0°C (57°F)
Dewpoint: 7.0°C (45°F) [RH = 63%]
Pressure (altimeter): 29.79 inches Hg (1009.0 mb)
Winds: from the S (190 degrees) at 5 MPH (4 knots; 2.1 m/s)
Visibility: 6 or more miles (10+ km)
Ceiling: at least 12,000 feet AGL
Clouds: scattered clouds at 2000 feet AGL
Weather: no significant weather observed at this time

METAR text: LEZL 242100Z VRB02KT 9999 SCT020 14/07 Q1009 NOSIG
Conditions at: LEZL (SEVILLA (CIV/MIL, ES) observed 2100 UTC 24 February 2018
Temperature: 14.0°C (57°F)
Dewpoint: 7.0°C (45°F) [RH = 63%]
Pressure (altimeter): 29.79 inches Hg (1009.0 mb)
Winds: variable direction winds at 2 MPH (2 knots; 1.0 m/s)
Visibility: 6 or more miles (10+ km)
Ceiling: at least 12,000 feet AGL
Clouds: scattered clouds at 2000 feet AGL
Weather: no significant weather observed at this time

Forecast for: LEZL (SEVILLA (CIV/MIL, ES)
Text: TAF LEZL 242000Z 2421/2521 22010KT 9999 FEW035 TX16/2515Z TN06/2507Z
Forecast period: 2100 to 2300 UTC 24 February 2018
Forecast type: FROM: standard forecast or significant change
Winds: from the SW (220 degrees) at 12 MPH (10 knots; 5.2 m/s)
Visibility: 6 or more miles (10+ km)
Clouds: few clouds at 3500 feet AGL
Weather: no significant weather forecast for this period
Text: BECMG 2423/2501 04005KT
Forecast period: 2300 UTC 24 February 2018 to 2100 UTC 25 February 2018
Forecast type: BECOMING: Conditions expected to become as follows by 0100 UTC 25 February 2018
Winds: from the NE (40 degrees) at 6 MPH (5 knots; 2.6 m/s)
Visibility: 6 or more miles (10+ km)
Clouds: few clouds at 3500 feet AGL
Weather: no significant weather forecast for this period
Text: PROB30
Forecast period: 0600 to 1200 UTC 25 February 2018
Forecast type: TEMPORARY: The following changes expected for less than half the time period
Weather: RA  (rain)